createdAt,value
2019-06-20T00:01:53.703Z,96517.72
2019-06-20T00:04:20.461Z,96528.52
2019-06-20T00:06:47.358Z,96515.73
2019-06-20T00:09:14.274Z,96515.92
2019-06-20T00:11:41.102Z,96514.88
2019-06-20T00:14:07.906Z,96500.23
2019-06-20T00:16:34.631Z,96500.16
2019-06-20T00:19:01.431Z,96501.09
2019-06-20T00:21:28.546Z,96498.70
2019-06-20T00:23:55.317Z,96498.44
2019-06-20T00:26:22.059Z,96503.97
2019-06-20T00:28:48.800Z,96500.01
2019-06-20T00:31:15.546Z,96498.03
2019-06-20T00:33:42.280Z,96500.19
2019-06-20T00:36:09.130Z,96497.66
2019-06-20T00:38:35.931Z,96498.44
2019-06-20T00:41:02.867Z,96499.11
2019-06-20T00:43:29.570Z,96496.61
2019-06-20T00:45:56.386Z,96494.14
2019-06-20T00:48:23.300Z,96494.81
2019-06-20T00:50:50.030Z,96484.77
2019-06-20T00:53:16.735Z,96483.38
2019-06-20T00:55:43.535Z,96487.53
2019-06-20T00:58:10.410Z,96493.62
2019-06-20T01:00:37.319Z,96489.66
2019-06-20T01:03:04.348Z,96490.97
2019-06-20T01:05:31.059Z,96486.22
2019-06-20T01:07:57.784Z,96496.09
2019-06-20T01:10:24.502Z,96498.89
2019-06-20T01:12:51.322Z,96490.67
2019-06-20T01:15:18.141Z,96492.88
2019-06-20T01:17:53.646Z,96494.73
2019-06-20T01:20:20.797Z,96493.98
2019-06-20T01:22:47.610Z,96491.70
2019-06-20T01:25:16.753Z,96484.90
2019-06-20T01:27:43.593Z,96489.27
2019-06-20T01:30:11.731Z,96493.03
2019-06-20T01:32:38.535Z,96490.15
2019-06-20T01:35:08.731Z,96489.59
2019-06-20T01:37:35.849Z,96489.18
2019-06-20T01:40:04.769Z,96488.58
2019-06-20T01:42:31.574Z,96483.47
2019-06-20T01:44:58.451Z,96488.64
2019-06-20T01:47:25.226Z,96488.84
2019-06-20T01:49:51.961Z,96484.98
2019-06-20T01:52:18.845Z,96482.13
2019-06-20T01:54:45.591Z,96486.70
2019-06-20T01:57:12.390Z,96476.91
2019-06-20T01:59:39.166Z,96481.25
2019-06-20T02:02:06.091Z,96485.52
2019-06-20T02:04:32.931Z,96491.98
2019-06-20T02:06:59.803Z,96492.70
2019-06-20T02:09:26.810Z,96499.77
2019-06-20T02:11:53.565Z,96495.97
2019-06-20T02:14:20.367Z,96500.67
2019-06-20T02:16:47.385Z,96497.34
2019-06-20T02:19:14.399Z,96499.30
2019-06-20T02:21:41.238Z,96499.11
2019-06-20T02:24:08.088Z,96503.59
2019-06-20T02:26:34.888Z,96505.34
2019-06-20T02:29:01.953Z,96502.37
2019-06-20T02:31:28.814Z,96503.88
2019-06-20T02:33:55.643Z,96507.61
2019-06-20T02:36:22.556Z,96504.43
2019-06-20T02:38:49.376Z,96506.78
2019-06-20T02:41:16.292Z,96514.45
2019-06-20T02:43:43.197Z,96509.11
2019-06-20T02:46:10.319Z,96511.53
2019-06-20T02:48:37.124Z,96511.53
2019-06-20T02:51:04.147Z,96510.68
2019-06-20T02:53:30.958Z,96505.90
2019-06-20T02:55:57.807Z,96509.38
2019-06-20T02:58:24.653Z,96508.00
2019-06-20T03:00:56.566Z,96498.13
2019-06-20T03:03:25.651Z,96501.94
2019-06-20T03:05:52.712Z,96505.90
2019-06-20T03:08:19.613Z,96515.76
2019-06-20T03:10:46.533Z,96513.59
2019-06-20T03:13:13.435Z,96517.67
2019-06-20T03:15:40.487Z,96519.24
2019-06-20T03:18:07.217Z,96521.41
2019-06-20T03:20:34.030Z,96523.58
2019-06-20T03:23:00.932Z,96521.22
2019-06-20T03:25:28.221Z,96524.77
2019-06-20T03:27:54.936Z,96521.82
2019-06-20T03:30:22.047Z,96520.69
2019-06-20T03:32:49.057Z,96526.22
2019-06-20T03:35:15.978Z,96528.36
2019-06-20T03:37:42.700Z,96535.11
2019-06-20T03:40:10.207Z,96539.26
2019-06-20T03:42:37.018Z,96536.31
2019-06-20T03:45:05.425Z,96529.20
2019-06-20T03:47:32.339Z,96537.50
2019-06-20T03:49:59.142Z,96535.34
2019-06-20T03:52:25.907Z,96534.92
2019-06-20T03:54:52.717Z,96541.23
2019-06-20T03:57:19.431Z,96538.03
2019-06-20T03:59:46.273Z,96541.17
2019-06-20T04:02:13.117Z,96537.77
2019-06-20T04:04:40.157Z,96538.72
2019-06-20T04:07:07.087Z,96545.41
2019-06-20T04:09:33.824Z,96549.92
2019-06-20T04:12:00.560Z,96553.29
2019-06-20T04:14:27.772Z,96551.31
2019-06-20T04:16:54.507Z,96548.73
2019-06-20T04:19:21.217Z,96549.92
2019-06-20T04:21:47.927Z,96553.10
2019-06-20T04:24:14.753Z,96550.81
2019-06-20T04:26:41.462Z,96555.00
2019-06-20T04:29:08.169Z,96557.58
2019-06-20T04:31:34.926Z,96559.33
2019-06-20T04:34:01.695Z,96561.88
2019-06-20T04:36:28.638Z,96555.08
2019-06-20T04:38:55.451Z,96556.84
2019-06-20T04:41:22.379Z,96557.81
2019-06-20T04:43:49.118Z,96563.27
2019-06-20T04:46:23.625Z,96564.84
2019-06-20T04:48:50.346Z,96569.55
2019-06-20T04:51:17.041Z,96565.34
2019-06-20T04:53:43.761Z,96571.25
2019-06-20T04:56:10.582Z,96568.25
2019-06-20T04:58:37.403Z,96568.44
2019-06-20T05:01:04.315Z,96570.17
2019-06-20T05:03:31.133Z,96571.33
2019-06-20T05:05:57.941Z,96578.02
2019-06-20T05:08:24.762Z,96581.91
2019-06-20T05:10:51.602Z,96577.95
2019-06-20T05:13:18.469Z,96577.54
2019-06-20T05:15:52.421Z,96572.49
2019-06-20T05:18:14.206Z,96565.83
2019-06-20T05:20:41.040Z,96560.77
2019-06-20T05:23:07.747Z,96566.98
2019-06-20T05:25:34.650Z,96572.13
2019-06-20T05:28:01.666Z,96564.82
2019-06-20T05:30:28.837Z,96566.53
2019-06-20T05:32:55.643Z,96574.84
2019-06-20T05:35:22.343Z,96577.45
2019-06-20T05:37:49.066Z,96575.48
2019-06-20T05:40:16.003Z,96567.84
2019-06-20T05:42:42.819Z,96569.84
2019-06-20T05:45:10.383Z,96574.88
2019-06-20T05:47:37.201Z,96568.98
2019-06-20T05:50:07.013Z,96572.38
2019-06-20T05:52:33.751Z,96573.39
2019-06-20T05:55:00.458Z,96574.77
2019-06-20T05:57:27.270Z,96573.38
2019-06-20T05:59:54.175Z,96572.52
2019-06-20T06:02:20.957Z,96571.80
2019-06-20T06:04:47.874Z,96567.73
2019-06-20T06:07:14.579Z,96565.02
2019-06-20T06:09:41.430Z,96574.13
2019-06-20T06:12:08.414Z,96577.86
2019-06-20T06:14:35.260Z,96572.50
2019-06-20T06:17:02.161Z,96578.22
2019-06-20T06:19:28.941Z,96577.16
2019-06-20T06:21:55.673Z,96577.52
2019-06-20T06:24:22.490Z,96575.89
2019-06-20T06:26:49.190Z,96571.30
2019-06-20T06:29:16.020Z,96574.58
2019-06-20T06:31:42.824Z,96576.33
2019-06-20T06:34:09.883Z,96578.58
2019-06-20T06:36:36.579Z,96582.43
2019-06-20T06:39:07.699Z,96577.73
2019-06-20T06:41:34.530Z,96574.11
2019-06-20T06:44:01.476Z,96571.16
2019-06-20T06:46:42.844Z,96577.92
2019-06-20T06:48:56.918Z,96581.73
2019-06-20T06:51:23.616Z,96581.98
2019-06-20T06:53:50.450Z,96577.75
2019-06-20T06:56:17.287Z,96586.26
2019-06-20T06:58:43.994Z,96592.74
2019-06-20T07:01:10.904Z,96593.91
2019-06-20T07:03:37.639Z,96581.34
2019-06-20T07:06:04.530Z,96588.95
2019-06-20T07:08:31.426Z,96588.88
2019-06-20T07:10:58.415Z,96588.70
2019-06-20T07:13:25.158Z,96585.55
2019-06-20T07:15:51.872Z,96583.98
2019-06-20T07:18:18.897Z,96581.72
2019-06-20T07:20:45.735Z,96586.84
2019-06-20T07:23:12.586Z,96582.51
2019-06-20T07:25:39.317Z,96580.86
2019-06-20T07:28:06.025Z,96587.39
2019-06-20T07:30:32.734Z,96584.53
2019-06-20T07:32:59.573Z,96582.73
2019-06-20T07:35:26.331Z,96577.05
2019-06-20T07:37:53.081Z,96579.83
2019-06-20T07:40:20.422Z,96584.72
2019-06-20T07:42:47.426Z,96585.63
2019-06-20T07:45:15.099Z,96585.31
2019-06-20T07:47:41.999Z,96586.47
2019-06-20T07:50:09.873Z,96590.75
2019-06-20T07:52:36.772Z,96595.31
2019-06-20T07:55:08.270Z,96596.94
2019-06-20T07:57:34.986Z,96590.73
2019-06-20T08:00:09.760Z,96592.64
2019-06-20T08:02:36.774Z,96587.56
2019-06-20T08:05:06.019Z,96590.70
2019-06-20T08:07:32.846Z,96600.52
2019-06-20T08:09:59.724Z,96590.25
2019-06-20T08:12:26.505Z,96600.52
2019-06-20T08:14:53.269Z,96594.94
2019-06-20T08:17:34.325Z,96591.36
2019-06-20T08:19:48.619Z,96596.50
2019-06-20T08:22:15.395Z,96595.85
2019-06-20T08:24:42.340Z,96588.75
2019-06-20T08:27:09.141Z,96592.53
2019-06-20T08:29:35.969Z,96599.33
2019-06-20T08:32:02.928Z,96596.78
2019-06-20T08:34:29.966Z,96598.21
2019-06-20T08:36:57.805Z,96594.83
2019-06-20T08:39:29.187Z,96602.81
2019-06-20T08:41:55.438Z,96598.45
2019-06-20T08:44:22.486Z,96601.26
2019-06-20T08:46:49.335Z,96602.17
2019-06-20T08:49:16.193Z,96597.78
2019-06-20T08:51:42.908Z,96598.21
2019-06-20T08:54:09.716Z,96590.73
2019-06-20T08:56:36.959Z,96593.20
2019-06-20T08:59:04.890Z,96595.84
2019-06-20T09:01:31.932Z,96594.97
2019-06-20T09:03:58.739Z,96591.58
2019-06-20T09:06:26.090Z,96590.80
2019-06-20T09:08:53.855Z,96589.29
2019-06-20T09:11:21.870Z,96586.33
2019-06-20T09:13:48.680Z,96581.55
2019-06-20T09:16:24.351Z,96579.52
2019-06-20T09:18:44.139Z,96584.66
2019-06-20T09:21:11.150Z,96587.75
2019-06-20T09:23:37.882Z,96582.61
2019-06-20T09:26:04.724Z,96586.20
2019-06-20T09:28:31.534Z,96586.04
2019-06-20T09:30:59.225Z,96585.25
2019-06-20T09:33:26.344Z,96581.08
2019-06-20T09:35:53.991Z,96583.58
2019-06-20T09:38:23.455Z,96587.47
2019-06-20T09:40:51.915Z,96575.20
2019-06-20T09:43:27.707Z,96584.69
2019-06-20T09:45:48.090Z,96582.04
2019-06-20T09:48:14.919Z,96579.84
2019-06-20T09:50:41.787Z,96580.48
2019-06-20T09:53:08.479Z,96577.08
2019-06-20T09:55:35.414Z,96577.54
2019-06-20T09:58:02.426Z,96568.51
2019-06-20T10:00:29.850Z,96574.25
2019-06-20T10:02:57.821Z,96568.66
2019-06-20T10:05:25.306Z,96564.80
2019-06-20T10:07:52.345Z,96569.92
2019-06-20T10:10:27.819Z,96562.16
2019-06-20T10:12:55.869Z,96565.58
2019-06-20T10:15:27.597Z,96567.58
2019-06-20T10:17:54.709Z,96569.61
2019-06-20T10:20:22.543Z,96567.11
2019-06-20T10:22:49.384Z,96569.13
2019-06-20T10:25:16.498Z,96559.45
2019-06-20T10:27:44.848Z,96561.16
2019-06-20T10:30:14.537Z,96554.35
2019-06-20T10:32:41.720Z,96561.06
2019-06-20T10:35:09.995Z,96557.02
2019-06-20T10:37:36.919Z,96562.27
2019-06-20T10:40:07.630Z,96561.17
2019-06-20T10:42:34.481Z,96560.34
2019-06-20T10:45:01.976Z,96565.91
2019-06-20T10:47:35.000Z,96564.48
2019-06-20T10:49:57.883Z,96568.64
2019-06-20T10:52:24.757Z,96568.51
2019-06-20T10:54:51.703Z,96573.19
2019-06-20T10:57:18.556Z,96568.89
2019-06-20T10:59:46.519Z,96574.38
2019-06-20T11:02:13.543Z,96565.69
2019-06-20T11:04:41.105Z,96571.11
2019-06-20T11:07:09.266Z,96570.03
2019-06-20T11:09:36.194Z,96570.04
2019-06-20T11:12:03.223Z,96555.69
2019-06-20T11:14:29.931Z,96561.58
2019-06-20T11:16:57.555Z,96569.19
2019-06-20T11:19:24.268Z,96562.98
2019-06-20T11:21:50.992Z,96559.99
2019-06-20T11:24:17.910Z,96558.86
2019-06-20T11:26:46.009Z,96559.72
2019-06-20T11:29:12.869Z,96574.22
2019-06-20T11:31:44.232Z,96580.37
2019-06-20T11:34:08.337Z,96591.92
2019-06-20T11:36:36.989Z,96582.95
2019-06-20T11:39:06.299Z,96582.61
2019-06-20T11:41:33.132Z,96573.45
2019-06-20T11:43:59.840Z,96573.95
2019-06-20T11:46:26.707Z,96566.73
2019-06-20T11:48:53.473Z,96584.48
2019-06-20T11:51:20.505Z,96589.33
2019-06-20T11:53:47.472Z,96590.24
2019-06-20T11:56:14.199Z,96596.78
2019-06-20T11:58:40.919Z,96604.42
2019-06-20T12:01:07.659Z,96603.27
2019-06-20T12:03:34.380Z,96604.19
2019-06-20T12:06:01.088Z,96595.22
2019-06-20T12:08:27.830Z,96594.91
2019-06-20T12:10:54.767Z,96597.98
2019-06-20T12:13:21.587Z,96594.42
2019-06-20T12:15:49.000Z,96596.86
2019-06-20T12:18:16.014Z,96607.83
2019-06-20T12:20:42.951Z,96608.84
2019-06-20T12:23:10.029Z,96614.58
2019-06-20T12:25:39.092Z,96611.80
2019-06-20T12:28:06.006Z,96612.58
2019-06-20T12:30:32.882Z,96607.19
2019-06-20T12:32:59.714Z,96600.89
2019-06-20T12:35:26.678Z,96600.70
2019-06-20T12:37:53.497Z,96600.31
2019-06-20T12:40:20.704Z,96603.44
2019-06-20T12:42:47.454Z,96602.92
2019-06-20T12:45:14.867Z,96604.14
2019-06-20T12:47:42.015Z,96604.48
2019-06-20T12:50:09.258Z,96604.14
2019-06-20T12:52:37.624Z,96597.36
2019-06-20T12:55:05.129Z,96598.41
2019-06-20T12:57:32.042Z,96590.95
2019-06-20T12:59:58.865Z,96585.14
2019-06-20T13:02:25.856Z,96580.34
2019-06-20T13:04:52.793Z,96581.03
2019-06-20T13:07:19.532Z,96572.66
2019-06-20T13:09:46.407Z,96572.92
2019-06-20T13:12:13.350Z,96567.91
2019-06-20T13:14:40.887Z,96565.66
2019-06-20T13:17:07.813Z,96558.64
2019-06-20T13:19:34.518Z,96552.21
2019-06-20T13:22:01.250Z,96548.16
2019-06-20T13:24:27.957Z,96543.64
2019-06-20T13:26:54.733Z,96542.95
2019-06-20T13:29:21.485Z,96536.84
2019-06-20T13:32:01.679Z,96535.24
2019-06-20T13:34:16.834Z,96528.64
2019-06-20T13:36:44.747Z,96524.03
2019-06-20T13:39:11.764Z,96518.96
2019-06-20T13:41:41.214Z,96520.70
2019-06-20T13:44:08.173Z,96520.96
2019-06-20T13:46:35.117Z,96521.86
2019-06-20T13:49:02.036Z,96520.73
2019-06-20T13:51:28.929Z,96516.82
2019-06-20T13:53:55.888Z,96520.06
2019-06-20T13:56:23.037Z,96516.56
2019-06-20T13:58:51.235Z,96511.58
2019-06-20T14:01:18.309Z,96505.83
2019-06-20T14:03:45.694Z,96505.96
2019-06-20T14:06:13.914Z,96508.44
2019-06-20T14:08:42.366Z,96503.48
2019-06-20T14:11:09.370Z,96505.43
2019-06-20T14:13:36.323Z,96498.42
2019-06-20T14:16:03.372Z,96494.80
2019-06-20T14:18:30.225Z,96495.17
2019-06-20T14:20:57.046Z,96496.84
2019-06-20T14:23:23.887Z,96500.45
2019-06-20T14:25:51.731Z,96493.35
2019-06-20T14:28:18.874Z,96489.52
2019-06-20T14:30:46.548Z,96482.55
2019-06-20T14:33:13.888Z,96481.30
2019-06-20T14:35:43.497Z,96478.78
2019-06-20T14:38:09.507Z,96481.84
2019-06-20T14:40:36.488Z,96480.89
2019-06-20T14:43:03.325Z,96480.55
2019-06-20T14:45:30.171Z,96481.94
2019-06-20T14:47:57.058Z,96486.90
2019-06-20T14:50:23.983Z,96478.03
2019-06-20T14:52:52.193Z,96470.56
2019-06-20T14:55:19.880Z,96468.08
2019-06-20T14:57:48.418Z,96474.36
2019-06-20T15:00:16.973Z,96468.48
2019-06-20T15:02:45.762Z,96456.67
2019-06-20T15:05:17.939Z,96456.16
2019-06-20T15:07:46.726Z,96456.91
2019-06-20T15:10:14.505Z,96446.98
2019-06-20T15:12:41.548Z,96448.82
2019-06-20T15:15:08.956Z,96450.66
2019-06-20T15:17:35.862Z,96448.34
2019-06-20T15:20:06.461Z,96453.91
2019-06-20T15:22:33.284Z,96453.73
2019-06-20T15:25:00.098Z,96453.56
2019-06-20T15:27:26.852Z,96461.91
2019-06-20T15:29:54.411Z,96459.91
2019-06-20T15:32:22.242Z,96463.64
2019-06-20T15:34:49.443Z,96467.52
2019-06-20T15:37:16.304Z,96468.60
2019-06-20T15:39:43.042Z,96481.39
2019-06-20T15:42:09.752Z,96480.09
2019-06-20T15:44:36.483Z,96480.05
2019-06-20T15:47:03.405Z,96486.66
2019-06-20T15:49:30.215Z,96483.84
2019-06-20T15:51:59.166Z,96490.80
2019-06-20T15:54:26.309Z,96502.09
2019-06-20T15:56:53.247Z,96504.27
2019-06-20T15:59:20.328Z,96503.48
2019-06-20T16:01:47.017Z,96502.41
2019-06-20T16:04:13.779Z,96508.31
2019-06-20T16:06:40.575Z,96510.66
2019-06-20T16:09:09.076Z,96522.30
2019-06-20T16:11:36.553Z,96522.00
2019-06-20T16:14:03.421Z,96525.30
2019-06-20T16:16:30.106Z,96523.78
2019-06-20T16:18:56.995Z,96527.08
2019-06-20T16:21:23.825Z,96523.08
2019-06-20T16:23:50.719Z,96530.98
2019-06-20T16:26:17.369Z,96532.82
2019-06-20T16:28:44.162Z,96536.22
2019-06-20T16:31:25.906Z,96532.60
2019-06-20T16:33:39.648Z,96526.35
2019-06-20T16:36:06.422Z,96525.95
2019-06-20T16:38:33.311Z,96528.83
2019-06-20T16:40:59.999Z,96529.39
2019-06-20T16:43:26.801Z,96521.61
2019-06-20T16:45:53.451Z,96529.27
2019-06-20T16:48:20.261Z,96539.20
2019-06-20T16:50:47.073Z,96540.95
2019-06-20T16:53:13.819Z,96542.80
2019-06-20T16:55:40.812Z,96552.81
2019-06-20T16:58:07.940Z,96556.69
2019-06-20T17:00:34.957Z,96565.23
2019-06-20T17:03:01.833Z,96558.30
2019-06-20T17:05:28.705Z,96555.35
2019-06-20T17:07:55.467Z,96549.09
2019-06-20T17:10:24.230Z,96541.97
2019-06-20T17:12:51.122Z,96548.77
2019-06-20T17:15:18.918Z,96556.15
2019-06-20T17:17:45.812Z,96553.63
2019-06-20T17:20:13.571Z,96568.30
2019-06-20T17:22:42.278Z,96564.23
2019-06-20T17:25:09.660Z,96558.16
2019-06-20T17:27:36.427Z,96563.36
2019-06-20T17:30:11.811Z,96560.38
2019-06-20T17:32:38.942Z,96557.42
2019-06-20T17:35:07.015Z,96564.22
2019-06-20T17:37:34.087Z,96569.13
2019-06-20T17:40:00.791Z,96559.88
2019-06-20T17:42:27.700Z,96562.12
2019-06-20T17:44:54.365Z,96565.61
2019-06-20T17:47:21.289Z,96575.66
2019-06-20T17:49:48.140Z,96575.22
2019-06-20T17:52:15.019Z,96580.34
2019-06-20T17:54:41.783Z,96577.56
2019-06-20T17:57:08.555Z,96574.42
2019-06-20T17:59:35.241Z,96579.95
2019-06-20T18:02:02.063Z,96579.52
2019-06-20T18:04:28.752Z,96573.63
2019-06-20T18:06:55.449Z,96574.69
2019-06-20T18:09:22.303Z,96566.52
2019-06-20T18:11:49.085Z,96567.39
2019-06-20T18:14:15.773Z,96571.44
2019-06-20T18:16:42.633Z,96578.61
2019-06-20T18:19:09.416Z,96577.50
2019-06-20T18:21:36.343Z,96567.44
2019-06-20T18:24:03.302Z,96574.97
2019-06-20T18:26:30.010Z,96570.45
2019-06-20T18:28:56.709Z,96577.38
2019-06-20T18:31:23.423Z,96574.28
2019-06-20T18:33:50.429Z,96572.71
2019-06-20T18:36:17.326Z,96573.13
2019-06-20T18:38:44.006Z,96563.85
2019-06-20T18:41:10.673Z,96562.10
2019-06-20T18:43:37.514Z,96562.10
2019-06-20T18:46:04.306Z,96569.03
2019-06-20T18:48:32.094Z,96568.25
2019-06-20T18:50:59.056Z,96576.93
2019-06-20T18:53:45.097Z,96581.52
2019-06-20T18:56:11.868Z,96581.69
2019-06-20T18:58:38.549Z,96582.90
2019-06-20T19:01:05.399Z,96581.00
2019-06-20T19:03:32.206Z,96584.98
2019-06-20T19:05:58.999Z,96595.52
2019-06-20T19:08:25.736Z,96593.80
2019-06-20T19:10:52.536Z,96598.56
2019-06-20T19:13:19.348Z,96598.98
2019-06-20T19:15:46.146Z,96603.56
2019-06-20T19:18:12.912Z,96608.51
2019-06-20T19:20:39.887Z,96612.48
2019-06-20T19:23:06.760Z,96612.98
2019-06-20T19:25:33.662Z,96627.69
2019-06-20T19:28:00.748Z,96635.30
2019-06-20T19:30:38.842Z,96640.66
2019-06-20T19:33:05.858Z,96637.11
2019-06-20T19:35:32.648Z,96632.17
2019-06-20T19:37:59.380Z,96629.58
2019-06-20T19:40:31.925Z,96628.19
2019-06-20T19:42:58.769Z,96634.34
2019-06-20T19:45:25.677Z,96636.14
2019-06-20T19:47:52.561Z,96634.02
2019-06-20T19:50:19.956Z,96634.89
2019-06-20T19:52:46.744Z,96630.19
2019-06-20T19:55:15.150Z,96632.77
2019-06-20T19:57:42.123Z,96637.61
2019-06-20T20:00:10.937Z,96632.53
2019-06-20T20:02:37.979Z,96633.78
2019-06-20T20:05:18.534Z,96630.41
2019-06-20T20:07:35.882Z,96632.40
2019-06-20T20:10:05.660Z,96635.59
2019-06-20T20:12:32.515Z,96633.68
2019-06-20T20:14:59.504Z,96630.55
2019-06-20T20:17:26.333Z,96620.30
2019-06-20T20:19:53.097Z,96619.36
2019-06-20T20:22:19.797Z,96625.13
2019-06-20T20:24:46.491Z,96624.76
2019-06-20T20:27:13.409Z,96618.70
2019-06-20T20:29:40.225Z,96622.22
2019-06-20T20:32:07.093Z,96625.78
2019-06-20T20:34:33.818Z,96617.91
2019-06-20T20:37:00.516Z,96625.06
2019-06-20T20:39:27.184Z,96622.16
2019-06-20T20:41:53.914Z,96629.16
2019-06-20T20:44:20.566Z,96634.74
2019-06-20T20:46:47.363Z,96639.16
2019-06-20T20:49:14.089Z,96637.77
2019-06-20T20:51:40.755Z,96639.16
2019-06-20T20:54:07.534Z,96632.05
2019-06-20T20:56:34.228Z,96626.88
2019-06-20T20:59:01.196Z,96624.11
2019-06-20T21:01:29.476Z,96629.46
2019-06-20T21:03:59.084Z,96633.66
2019-06-20T21:06:27.505Z,96648.70
2019-06-20T21:08:54.250Z,96647.39
2019-06-20T21:11:21.047Z,96642.50
2019-06-20T21:13:47.722Z,96646.77
2019-06-20T21:16:14.528Z,96649.64
2019-06-20T21:18:41.300Z,96654.27
2019-06-20T21:21:08.192Z,96651.91
2019-06-20T21:23:35.034Z,96659.25
2019-06-20T21:26:01.856Z,96658.09
2019-06-20T21:28:28.617Z,96660.52
2019-06-20T21:30:55.407Z,96661.59
2019-06-20T21:33:22.152Z,96668.36
2019-06-20T21:35:48.924Z,96678.70
2019-06-20T21:38:15.699Z,96682.28
2019-06-20T21:40:42.863Z,96677.60
2019-06-20T21:43:09.737Z,96672.70
2019-06-20T21:45:36.439Z,96668.87
2019-06-20T21:48:03.729Z,96671.59
2019-06-20T21:50:30.421Z,96671.30
2019-06-20T21:52:57.092Z,96676.92
2019-06-20T21:55:23.884Z,96686.67
2019-06-20T21:57:50.655Z,96689.73
2019-06-20T22:00:30.020Z,96684.07
2019-06-20T22:02:56.715Z,96687.02
2019-06-20T22:05:23.436Z,96675.53
2019-06-20T22:07:50.230Z,96684.02
2019-06-20T22:10:17.619Z,96681.06
2019-06-20T22:12:44.399Z,96670.84
2019-06-20T22:15:11.588Z,96668.68
2019-06-20T22:17:38.373Z,96673.98
2019-06-20T22:20:06.346Z,96674.40
2019-06-20T22:22:33.241Z,96672.58
2019-06-20T22:24:59.915Z,96672.58
2019-06-20T22:27:26.681Z,96672.83
2019-06-20T22:29:53.347Z,96672.03
2019-06-20T22:32:20.298Z,96683.09
2019-06-20T22:34:46.986Z,96681.35
2019-06-20T22:37:13.863Z,96682.89
2019-06-20T22:39:40.514Z,96687.28
2019-06-20T22:42:07.366Z,96693.21
2019-06-20T22:44:34.157Z,96691.26
2019-06-20T22:47:00.955Z,96693.87
2019-06-20T22:49:27.645Z,96691.33
2019-06-20T22:51:54.306Z,96682.50
2019-06-20T22:54:21.088Z,96677.19
2019-06-20T22:56:47.970Z,96672.06
2019-06-20T22:59:14.721Z,96674.44
2019-06-20T23:01:43.426Z,96669.35
2019-06-20T23:04:10.263Z,96671.92
2019-06-20T23:06:37.043Z,96675.47
2019-06-20T23:09:06.005Z,96672.33
2019-06-20T23:11:32.700Z,96668.44
2019-06-20T23:13:59.578Z,96665.55
2019-06-20T23:16:26.236Z,96674.83
2019-06-20T23:18:52.919Z,96679.55
2019-06-20T23:21:19.586Z,96677.53
2019-06-20T23:23:46.303Z,96679.10
2019-06-20T23:26:13.667Z,96680.87
2019-06-20T23:28:40.567Z,96682.60
2019-06-20T23:31:07.658Z,96678.30
2019-06-20T23:33:34.335Z,96678.91
2019-06-20T23:36:01.106Z,96681.93
2019-06-20T23:38:27.883Z,96685.14
2019-06-20T23:40:54.560Z,96690.48
2019-06-20T23:43:21.254Z,96684.81
2019-06-20T23:45:47.952Z,96685.22
2019-06-20T23:48:14.918Z,96687.59
2019-06-20T23:50:41.669Z,96678.33
2019-06-20T23:53:13.414Z,96673.83
2019-06-20T23:55:40.076Z,96678.77
2019-06-20T23:58:06.760Z,96670.30
